createdAt,value
2023-03-27T00:01:32.881Z,100820.16
2023-03-27T00:04:02.230Z,100817.59
2023-03-27T00:06:30.256Z,100827.72
2023-03-27T00:08:58.300Z,100826.06
2023-03-27T00:11:26.580Z,100830.59
2023-03-27T00:13:54.898Z,100827.31
2023-03-27T00:16:25.491Z,100834.03
2023-03-27T00:18:54.430Z,100837.84
2023-03-27T00:21:24.232Z,100841.22
2023-03-27T00:23:52.304Z,100841.56
2023-03-27T00:26:21.554Z,100844.38
2023-03-27T00:28:49.816Z,100842.59
2023-03-27T00:31:18.032Z,100841.78
2023-03-27T00:33:46.019Z,100845.44
2023-03-27T00:36:15.327Z,100844.47
2023-03-27T00:38:45.885Z,100847.47
2023-03-27T00:41:13.915Z,100844.66
2023-03-27T00:43:44.137Z,100846.25
2023-03-27T00:46:38.792Z,100853.53
2023-03-27T00:49:10.059Z,100857.59
2023-03-27T00:51:38.424Z,100845.25
2023-03-27T00:54:07.848Z,100854.88
2023-03-27T00:56:38.543Z,100854.81
2023-03-27T00:59:10.395Z,100859.41
2023-03-27T01:01:38.377Z,100864.13
2023-03-27T01:04:09.052Z,100866.91
2023-03-27T01:06:38.332Z,100866.31
2023-03-27T01:09:09.329Z,100863.28
2023-03-27T01:11:43.803Z,100864.44
2023-03-27T01:14:18.483Z,100864.31
2023-03-27T01:16:54.240Z,100862.56
2023-03-27T01:19:42.345Z,100859.06
2023-03-27T01:22:34.555Z,100860.44
2023-03-27T01:25:19.574Z,100865.63
2023-03-27T01:28:15.656Z,100871.91
2023-03-27T01:30:49.071Z,100868.78
2023-03-27T01:33:36.386Z,100865.31
2023-03-27T01:36:34.818Z,100873.91
2023-03-27T01:39:39.263Z,100876.72
2023-03-27T01:42:18.437Z,100879.63
2023-03-27T01:44:49.460Z,100881.44
2023-03-27T01:47:27.346Z,100883.19
2023-03-27T01:49:59.785Z,100886.16
2023-03-27T01:52:30.860Z,100887.03
2023-03-27T01:55:03.462Z,100896.66
2023-03-27T01:57:36.349Z,100895.25
2023-03-27T02:00:21.910Z,100893.97
2023-03-27T02:02:53.701Z,100899.81
2023-03-27T02:05:26.174Z,100914.81
2023-03-27T02:07:56.240Z,100916.41
2023-03-27T02:10:27.636Z,100908.97
2023-03-27T02:12:59.671Z,100915.44
2023-03-27T02:15:32.676Z,100907.69
2023-03-27T02:18:05.491Z,100919.16
2023-03-27T02:20:34.127Z,100924.38
2023-03-27T02:23:02.090Z,100920.72
2023-03-27T02:25:32.622Z,100921.50
2023-03-27T02:28:13.875Z,100923.38
2023-03-27T02:30:46.334Z,100928.50
2023-03-27T02:33:41.662Z,100926.78
2023-03-27T02:36:16.553Z,100929.34
2023-03-27T02:38:51.053Z,100937.84
2023-03-27T02:41:22.112Z,100941.97
2023-03-27T02:43:57.956Z,100937.38
2023-03-27T02:46:30.054Z,100940.38
2023-03-27T02:48:59.799Z,100949.56
2023-03-27T02:51:30.728Z,100951.50
2023-03-27T02:54:01.748Z,100954.31
2023-03-27T02:56:33.166Z,100960.13
2023-03-27T02:59:04.951Z,100959.19
2023-03-27T03:01:33.921Z,100969.91
2023-03-27T03:04:03.355Z,100967.19
2023-03-27T03:06:31.420Z,100965.22
2023-03-27T03:09:03.009Z,100972.22
2023-03-27T03:11:31.045Z,100976.25
2023-03-27T03:13:59.114Z,100985.66
2023-03-27T03:16:28.569Z,100991.25
2023-03-27T03:18:56.804Z,100995.25
2023-03-27T03:21:24.734Z,100996.59
2023-03-27T03:23:58.042Z,101002.34
2023-03-27T03:26:27.752Z,100997.75
2023-03-27T03:29:00.521Z,101003.69
2023-03-27T03:31:44.532Z,101012.53
2023-03-27T03:34:13.343Z,101016.16
2023-03-27T03:36:43.006Z,101031.19
2023-03-27T03:39:12.624Z,101040.19
2023-03-27T03:41:40.688Z,101051.44
2023-03-27T03:44:09.043Z,101064.53
2023-03-27T03:46:38.333Z,101074.56
2023-03-27T03:49:06.676Z,101066.31
2023-03-27T03:51:34.887Z,101041.81
2023-03-27T03:54:03.032Z,101047.31
2023-03-27T03:56:31.652Z,101051.78
2023-03-27T03:58:59.577Z,101048.63
2023-03-27T04:01:28.058Z,101051.81
2023-03-27T04:03:57.384Z,101058.66
2023-03-27T04:06:25.897Z,101057.34
2023-03-27T04:08:54.191Z,101065.53
2023-03-27T04:11:22.122Z,101068.72
2023-03-27T04:13:50.232Z,101067.34
2023-03-27T04:16:18.143Z,101073.41
2023-03-27T04:18:46.415Z,101069.44
2023-03-27T04:21:15.879Z,101072.75
2023-03-27T04:23:45.295Z,101078.38
2023-03-27T04:26:13.729Z,101084.63
2023-03-27T04:28:42.149Z,101090.50
2023-03-27T04:31:11.414Z,101087.09
2023-03-27T04:33:46.647Z,101094.63
2023-03-27T04:36:16.224Z,101093.53
2023-03-27T04:38:44.316Z,101093.31
2023-03-27T04:41:12.523Z,101110.16
2023-03-27T04:43:41.915Z,101116.28
2023-03-27T04:46:10.391Z,101126.94
2023-03-27T04:48:39.376Z,101133.97
2023-03-27T04:51:09.346Z,101140.91
2023-03-27T04:53:38.996Z,101139.69
2023-03-27T04:56:08.320Z,101137.78
2023-03-27T04:58:37.663Z,101138.03
2023-03-27T05:01:06.289Z,101129.84
2023-03-27T05:03:34.789Z,101148.19
2023-03-27T05:06:04.169Z,101146.66
2023-03-27T05:08:32.732Z,101145.03
2023-03-27T05:11:02.638Z,101149.63
2023-03-27T05:13:30.689Z,101154.03
2023-03-27T05:15:59.309Z,101158.53
2023-03-27T05:18:27.629Z,101163.34
2023-03-27T05:20:55.810Z,101167.25
2023-03-27T05:23:23.989Z,101176.31
2023-03-27T05:25:59.770Z,101187.94
2023-03-27T05:28:30.375Z,101182.19
2023-03-27T05:30:58.910Z,101191.41
2023-03-27T05:33:27.107Z,101190.53
2023-03-27T05:35:55.040Z,101199.28
2023-03-27T05:38:24.592Z,101197.69
2023-03-27T05:40:53.295Z,101206.50
2023-03-27T05:43:21.397Z,101207.38
2023-03-27T05:45:50.687Z,101209.66
2023-03-27T05:48:18.644Z,101212.41
2023-03-27T05:50:46.544Z,101215.78
2023-03-27T05:53:15.818Z,101218.84
2023-03-27T05:55:43.742Z,101221.16
2023-03-27T05:58:13.362Z,101219.22
2023-03-27T06:00:43.087Z,101239.78
2023-03-27T06:03:14.316Z,101240.63
2023-03-27T06:05:42.620Z,101236.66
2023-03-27T06:08:11.694Z,101225.25
2023-03-27T06:10:42.033Z,101224.59
2023-03-27T06:13:12.583Z,101233.44
2023-03-27T06:15:42.632Z,101231.31
2023-03-27T06:18:12.412Z,101232.69
2023-03-27T06:20:40.784Z,101231.25
2023-03-27T06:23:09.404Z,101226.44
2023-03-27T06:25:39.318Z,101235.19
2023-03-27T06:28:09.842Z,101238.78
2023-03-27T06:30:38.926Z,101241.59
2023-03-27T06:33:08.749Z,101249.44
2023-03-27T06:35:38.338Z,101252.44
2023-03-27T06:38:07.146Z,101259.19
2023-03-27T06:40:36.543Z,101246.19
2023-03-27T06:43:06.896Z,101259.19
2023-03-27T06:45:38.098Z,101280.16
2023-03-27T06:48:16.903Z,101281.31
2023-03-27T06:50:51.344Z,101283.22
2023-03-27T06:55:51.375Z,101289.09
2023-03-27T06:58:19.778Z,101287.50
2023-03-27T07:00:48.939Z,101277.63
2023-03-27T07:03:18.023Z,101281.94
2023-03-27T07:05:46.226Z,101285.13
2023-03-27T07:10:56.377Z,101298.06
2023-03-27T07:13:28.577Z,101315.94
2023-03-27T07:15:56.531Z,101321.34
2023-03-27T07:18:26.477Z,101320.22
2023-03-27T07:20:55.871Z,101318.38
2023-03-27T07:23:25.417Z,101319.06
2023-03-27T07:25:53.396Z,101320.09
2023-03-27T07:28:21.307Z,101325.97
2023-03-27T07:30:49.234Z,101326.50
2023-03-27T07:33:17.302Z,101330.47
2023-03-27T07:35:46.082Z,101327.50
2023-03-27T07:38:14.497Z,101326.34
2023-03-27T07:40:44.367Z,101338.28
2023-03-27T07:43:12.367Z,101338.34
2023-03-27T07:45:40.288Z,101348.69
2023-03-27T07:48:09.500Z,101357.38
2023-03-27T07:54:04.356Z,101344.50
2023-03-27T07:57:03.047Z,101353.09
2023-03-27T07:59:40.217Z,101349.69
2023-03-27T08:02:17.437Z,101347.72
2023-03-27T08:05:10.401Z,101357.88
2023-03-27T08:07:39.455Z,101364.94
2023-03-27T08:10:09.357Z,101355.22
2023-03-27T08:12:45.178Z,101366.28
2023-03-27T08:15:13.581Z,101352.81
2023-03-27T08:17:41.923Z,101347.97
2023-03-27T08:20:14.091Z,101352.66
2023-03-27T08:22:45.715Z,101357.53
2023-03-27T08:25:14.226Z,101359.78
2023-03-27T08:27:42.434Z,101365.22
2023-03-27T08:30:16.744Z,101356.53
2023-03-27T08:32:50.572Z,101358.91
2023-03-27T08:35:19.576Z,101353.25
2023-03-27T08:37:49.925Z,101347.38
2023-03-27T08:40:23.718Z,101354.66
2023-03-27T08:43:05.183Z,101351.50
2023-03-27T08:45:42.624Z,101353.00
2023-03-27T08:48:21.642Z,101351.13
2023-03-27T08:50:53.261Z,101354.50
2023-03-27T08:53:27.353Z,101363.72
2023-03-27T08:55:57.530Z,101371.41
2023-03-27T08:58:26.182Z,101388.00
2023-03-27T09:00:59.696Z,101377.13
2023-03-27T09:03:31.368Z,101384.25
2023-03-27T09:06:02.226Z,101371.56
2023-03-27T09:08:40.851Z,101353.59
2023-03-27T09:11:15.229Z,101347.56
2023-03-27T09:13:47.312Z,101347.22
2023-03-27T09:16:21.362Z,101360.56
2023-03-27T09:18:55.824Z,101363.34
2023-03-27T09:21:30.048Z,101356.31
2023-03-27T09:24:00.449Z,101354.13
2023-03-27T09:26:32.208Z,101364.50
2023-03-27T09:29:02.002Z,101364.66
2023-03-27T09:31:34.436Z,101361.00
2023-03-27T09:34:08.334Z,101354.59
2023-03-27T09:36:36.886Z,101363.41
2023-03-27T09:39:08.016Z,101346.41
2023-03-27T09:41:40.019Z,101351.56
2023-03-27T09:44:11.731Z,101346.72
2023-03-27T09:46:43.360Z,101338.13
2023-03-27T09:49:14.540Z,101348.25
2023-03-27T09:51:45.682Z,101339.28
2023-03-27T09:54:16.996Z,101344.47
2023-03-27T09:56:47.765Z,101332.13
2023-03-27T09:59:27.283Z,101328.63
2023-03-27T10:01:59.221Z,101327.88
2023-03-27T10:04:29.331Z,101327.94
2023-03-27T10:07:02.560Z,101318.28
2023-03-27T10:09:32.226Z,101315.78
2023-03-27T10:12:10.524Z,101325.19
2023-03-27T10:14:42.624Z,101326.94
2023-03-27T10:17:24.274Z,101322.78
2023-03-27T10:19:55.055Z,101329.34
2023-03-27T10:22:28.762Z,101331.84
2023-03-27T10:25:00.394Z,101328.28
2023-03-27T10:27:34.307Z,101339.53
2023-03-27T10:30:02.883Z,101332.44
2023-03-27T10:32:46.020Z,101336.28
2023-03-27T10:35:24.316Z,101335.84
2023-03-27T10:37:52.863Z,101340.47
2023-03-27T10:40:22.155Z,101340.13
2023-03-27T10:42:50.280Z,101344.44
2023-03-27T10:45:19.952Z,101336.97
2023-03-27T10:47:51.783Z,101340.97
2023-03-27T10:50:23.129Z,101340.66
2023-03-27T10:53:01.885Z,101330.47
2023-03-27T10:55:44.465Z,101330.28
2023-03-27T10:58:23.639Z,101330.50
2023-03-27T11:00:55.270Z,101334.56
2023-03-27T11:03:29.615Z,101327.00
2023-03-27T11:05:58.771Z,101348.78
2023-03-27T11:08:31.349Z,101377.09
2023-03-27T11:11:02.446Z,101387.00
2023-03-27T11:13:33.435Z,101393.44
2023-03-27T11:16:05.716Z,101403.38
2023-03-27T11:18:38.307Z,101412.28
2023-03-27T11:21:12.829Z,101418.81
2023-03-27T11:23:44.575Z,101428.13
2023-03-27T11:26:15.827Z,101428.88
2023-03-27T11:28:47.147Z,101426.63
2023-03-27T11:31:21.300Z,101432.25
2023-03-27T11:33:54.044Z,101426.06
2023-03-27T11:36:35.061Z,101434.63
2023-03-27T11:39:13.828Z,101429.63
2023-03-27T11:41:42.017Z,101437.97
2023-03-27T11:44:11.317Z,101432.28
2023-03-27T11:47:00.157Z,101422.59
2023-03-27T11:49:49.869Z,101417.69
2023-03-27T11:52:27.360Z,101415.00
2023-03-27T11:55:15.939Z,101407.38
2023-03-27T11:58:47.956Z,101412.91
2023-03-27T12:01:54.623Z,101391.69
2023-03-27T12:05:17.087Z,101400.69
2023-03-27T12:07:52.634Z,101392.56
2023-03-27T12:10:58.985Z,101383.94
2023-03-27T12:14:05.498Z,101400.03
2023-03-27T12:17:07.175Z,101399.03
2023-03-27T12:19:46.378Z,101398.34
2023-03-27T12:22:24.218Z,101404.84
2023-03-27T12:25:04.968Z,101398.84
2023-03-27T12:27:48.475Z,101392.75
2023-03-27T12:30:28.044Z,101386.16
2023-03-27T12:33:15.735Z,101394.88
2023-03-27T12:35:46.879Z,101398.59
2023-03-27T12:38:23.799Z,101393.19
2023-03-27T12:41:04.030Z,101390.63
2023-03-27T12:43:33.843Z,101373.47
2023-03-27T12:46:13.087Z,101384.06
2023-03-27T12:48:57.877Z,101371.03
2023-03-27T12:51:39.082Z,101379.31
2023-03-27T12:54:29.435Z,101359.13
2023-03-27T12:57:05.591Z,101372.13
2023-03-27T12:59:36.311Z,101375.94
2023-03-27T13:02:40.716Z,101371.28
2023-03-27T13:05:30.285Z,101373.97
2023-03-27T13:08:13.483Z,101367.97
2023-03-27T13:10:54.869Z,101371.09
2023-03-27T13:13:38.703Z,101360.41
2023-03-27T13:16:16.391Z,101368.88
2023-03-27T13:19:17.843Z,101376.63
2023-03-27T13:21:51.685Z,101378.41
2023-03-27T13:24:33.176Z,101383.25
2023-03-27T13:27:14.457Z,101384.59
2023-03-27T13:29:42.542Z,101389.47
2023-03-27T13:32:32.607Z,101397.81
2023-03-27T13:35:09.853Z,101393.38
2023-03-27T13:37:49.095Z,101395.91
2023-03-27T13:40:23.415Z,101398.50
2023-03-27T13:42:56.733Z,101386.66
2023-03-27T13:45:27.182Z,101404.75
2023-03-27T13:48:14.871Z,101404.16
2023-03-27T13:51:02.394Z,101404.84
2023-03-27T13:53:41.281Z,101411.38
2023-03-27T13:56:31.155Z,101409.72
2023-03-27T13:59:34.407Z,101404.53
2023-03-27T14:02:37.065Z,101403.56
2023-03-27T14:05:22.651Z,101413.53
2023-03-27T14:08:09.170Z,101416.56
2023-03-27T14:10:47.198Z,101423.19
2023-03-27T14:13:33.297Z,101423.19
2023-03-27T14:16:55.254Z,101417.13
2023-03-27T14:20:18.731Z,101415.91
2023-03-27T14:23:26.898Z,101430.78
2023-03-27T14:26:24.719Z,101428.13
2023-03-27T14:28:55.115Z,101436.69
2023-03-27T14:31:46.369Z,101444.94
2023-03-27T14:37:38.963Z,101463.72
2023-03-27T14:40:46.518Z,101483.03
2023-03-27T14:43:54.947Z,101476.31
2023-03-27T14:46:51.798Z,101494.81
2023-03-27T14:50:00.312Z,101490.72
2023-03-27T14:52:43.934Z,101498.25
2023-03-27T14:55:47.490Z,101485.56
2023-03-27T14:59:15.158Z,101471.88
2023-03-27T15:01:43.206Z,101474.78
2023-03-27T15:04:13.226Z,101469.41
2023-03-27T15:06:41.943Z,101472.59
2023-03-27T15:09:15.691Z,101476.03
2023-03-27T15:11:49.179Z,101471.22
2023-03-27T15:14:18.741Z,101477.91
2023-03-27T15:16:52.883Z,101479.25
2023-03-27T15:19:50.822Z,101475.06
2023-03-27T15:29:18.689Z,101472.25
2023-03-27T15:32:35.430Z,101476.44
2023-03-27T15:35:24.170Z,101495.09
2023-03-27T15:38:29.758Z,101481.50
2023-03-27T15:44:39.835Z,101475.72
2023-03-27T15:47:24.737Z,101506.34
2023-03-27T15:50:09.206Z,101498.19
2023-03-27T15:53:14.890Z,101492.19
2023-03-27T15:56:11.682Z,101489.91
2023-03-27T15:59:51.960Z,101494.75
2023-03-27T16:03:16.583Z,101482.13
2023-03-27T16:09:45.425Z,101502.56
2023-03-27T16:12:40.407Z,101495.72
2023-03-27T16:15:29.223Z,101501.69
2023-03-27T16:17:58.845Z,101502.88
2023-03-27T16:20:37.427Z,101495.75
2023-03-27T16:23:06.959Z,101507.66
2023-03-27T16:25:35.101Z,101506.66
2023-03-27T16:28:03.486Z,101509.75
2023-03-27T16:30:42.103Z,101517.41
2023-03-27T16:33:15.968Z,101501.91
2023-03-27T16:35:45.295Z,101511.72
2023-03-27T16:38:14.069Z,101505.56
2023-03-27T16:40:42.296Z,101505.03
2023-03-27T16:43:10.431Z,101505.56
2023-03-27T16:45:39.890Z,101517.88
2023-03-27T16:48:08.439Z,101510.69
2023-03-27T16:50:36.738Z,101516.88
2023-03-27T16:53:04.629Z,101529.75
2023-03-27T16:55:32.518Z,101517.19
2023-03-27T16:58:00.655Z,101523.84
2023-03-27T17:00:28.671Z,101522.97
2023-03-27T17:02:57.990Z,101512.81
2023-03-27T17:05:26.176Z,101523.59
2023-03-27T17:07:54.179Z,101529.41
2023-03-27T17:10:25.300Z,101537.59
2023-03-27T17:12:54.796Z,101536.44
2023-03-27T17:15:23.019Z,101536.88
2023-03-27T17:17:52.276Z,101548.47
2023-03-27T17:20:23.714Z,101548.94
2023-03-27T17:22:51.754Z,101544.34
2023-03-27T17:25:19.825Z,101554.16
2023-03-27T17:27:47.713Z,101558.84
2023-03-27T17:30:21.473Z,101564.38
2023-03-27T17:32:55.153Z,101564.31
2023-03-27T17:35:24.449Z,101566.41
2023-03-27T17:37:52.341Z,101577.31
2023-03-27T17:40:20.425Z,101573.53
2023-03-27T17:42:48.324Z,101566.34
2023-03-27T17:45:16.520Z,101571.09
2023-03-27T17:47:44.536Z,101570.13
2023-03-27T17:50:40.400Z,101572.50
2023-03-27T17:53:10.527Z,101575.19
2023-03-27T17:55:39.049Z,101574.72
2023-03-27T17:58:09.733Z,101571.75
2023-03-27T18:00:38.647Z,101576.97
2023-03-27T18:03:09.000Z,101591.13
2023-03-27T18:05:38.772Z,101580.38
2023-03-27T18:08:07.859Z,101589.78
2023-03-27T18:10:37.229Z,101594.28
2023-03-27T18:13:05.343Z,101588.28
2023-03-27T18:15:33.216Z,101593.56
2023-03-27T18:18:04.046Z,101592.19
2023-03-27T18:20:32.000Z,101593.22
2023-03-27T18:23:00.030Z,101592.19
2023-03-27T18:25:28.219Z,101600.56
2023-03-27T18:27:57.662Z,101602.09
2023-03-27T18:30:25.924Z,101607.56
2023-03-27T18:32:53.924Z,101606.91
2023-03-27T18:35:22.029Z,101602.09
2023-03-27T18:37:49.936Z,101610.66
2023-03-27T18:40:19.106Z,101600.56
2023-03-27T18:42:47.204Z,101605.41
2023-03-27T18:45:17.818Z,101618.38
2023-03-27T18:47:46.186Z,101625.56
2023-03-27T18:50:15.111Z,101645.16
2023-03-27T18:52:43.451Z,101638.63
2023-03-27T18:55:13.045Z,101647.22
2023-03-27T18:57:41.036Z,101649.22
2023-03-27T19:00:09.929Z,101638.03
2023-03-27T19:02:39.460Z,101637.03
2023-03-27T19:05:10.680Z,101636.69
2023-03-27T19:07:57.619Z,101643.41
2023-03-27T19:10:25.661Z,101648.56
2023-03-27T19:12:53.645Z,101645.44
2023-03-27T19:15:21.535Z,101679.69
2023-03-27T19:17:50.884Z,101667.91
2023-03-27T19:20:19.061Z,101664.44
2023-03-27T19:22:47.020Z,101679.16
2023-03-27T19:25:15.034Z,101675.41
2023-03-27T19:27:43.397Z,101675.72
2023-03-27T19:30:12.961Z,101677.53
2023-03-27T19:32:41.316Z,101661.34
2023-03-27T19:35:11.475Z,101671.72
2023-03-27T19:37:39.433Z,101671.78
2023-03-27T19:40:09.468Z,101668.84
2023-03-27T19:42:37.474Z,101674.66
2023-03-27T19:45:06.514Z,101671.31
2023-03-27T19:47:34.540Z,101668.78
2023-03-27T19:50:02.497Z,101669.84
2023-03-27T19:52:31.786Z,101669.50
2023-03-27T19:54:59.723Z,101671.06
2023-03-27T19:57:27.720Z,101670.31
2023-03-27T19:59:55.981Z,101672.66
2023-03-27T20:02:24.008Z,101658.38
2023-03-27T20:05:03.783Z,101669.13
2023-03-27T20:07:33.223Z,101671.31
2023-03-27T20:10:01.155Z,101698.50
2023-03-27T20:12:30.611Z,101714.09
2023-03-27T20:15:11.158Z,101694.63
2023-03-27T20:17:41.182Z,101697.16
2023-03-27T20:20:11.193Z,101702.06
2023-03-27T20:22:54.154Z,101703.00
2023-03-27T20:25:24.951Z,101699.56
2023-03-27T20:27:52.841Z,101690.97
2023-03-27T20:30:20.952Z,101692.75
2023-03-27T20:32:48.852Z,101695.03
2023-03-27T20:35:24.371Z,101689.47
2023-03-27T20:37:57.794Z,101691.06
2023-03-27T20:40:26.289Z,101701.09
2023-03-27T20:43:03.705Z,101699.19
2023-03-27T20:45:31.930Z,101692.41
2023-03-27T20:48:04.241Z,101696.00
2023-03-27T20:50:35.283Z,101699.34
2023-03-27T20:53:05.092Z,101705.00
2023-03-27T20:55:37.522Z,101709.38
2023-03-27T20:58:09.516Z,101701.03
2023-03-27T21:00:37.835Z,101699.31
2023-03-27T21:03:06.163Z,101704.06
2023-03-27T21:05:34.658Z,101714.91
2023-03-27T21:08:04.000Z,101709.28
2023-03-27T21:10:31.898Z,101706.09
2023-03-27T21:12:59.769Z,101708.81
2023-03-27T21:15:28.180Z,101709.59
2023-03-27T21:17:56.197Z,101705.78
2023-03-27T21:20:24.214Z,101709.59
2023-03-27T21:22:52.904Z,101713.34
2023-03-27T21:25:23.114Z,101713.72
2023-03-27T21:27:51.061Z,101715.81
2023-03-27T21:30:19.023Z,101727.78
2023-03-27T21:32:49.059Z,101719.72
2023-03-27T21:35:17.208Z,101729.22
2023-03-27T21:37:45.390Z,101731.09
2023-03-27T21:40:13.968Z,101724.88
2023-03-27T21:42:43.617Z,101731.09
2023-03-27T21:45:11.719Z,101733.97
2023-03-27T21:47:47.616Z,101733.53
2023-03-27T21:50:16.262Z,101729.22
2023-03-27T21:52:44.149Z,101730.19
2023-03-27T21:55:12.061Z,101728.75
2023-03-27T21:57:39.966Z,101730.00
2023-03-27T22:00:14.469Z,101728.94
2023-03-27T22:02:42.879Z,101717.28
2023-03-27T22:05:11.238Z,101730.91
2023-03-27T22:07:39.159Z,101740.56
2023-03-27T22:10:08.044Z,101745.75
2023-03-27T22:12:36.793Z,101746.88
2023-03-27T22:15:05.340Z,101747.06
2023-03-27T22:17:36.385Z,101762.69
2023-03-27T22:20:04.766Z,101764.03
2023-03-27T22:22:34.999Z,101765.78
2023-03-27T22:25:02.907Z,101774.56
2023-03-27T22:27:31.128Z,101773.66
2023-03-27T22:29:59.126Z,101781.41
2023-03-27T22:32:27.316Z,101787.44
2023-03-27T22:34:56.633Z,101779.25
2023-03-27T22:37:25.219Z,101784.16
2023-03-27T22:39:53.131Z,101802.06
2023-03-27T22:42:21.255Z,101817.06
2023-03-27T22:44:49.164Z,101833.38
2023-03-27T22:47:17.051Z,101842.09
2023-03-27T22:49:44.948Z,101845.53
2023-03-27T22:52:14.221Z,101803.97
2023-03-27T22:54:42.141Z,101817.72
2023-03-27T22:57:10.120Z,101810.56
2023-03-27T22:59:38.050Z,101824.34
2023-03-27T23:02:06.507Z,101829.59
2023-03-27T23:04:34.723Z,101836.59
2023-03-27T23:07:02.918Z,101845.19
2023-03-27T23:09:32.213Z,101846.75
2023-03-27T23:12:00.153Z,101843.84
2023-03-27T23:14:28.060Z,101857.84
2023-03-27T23:16:56.098Z,101867.47
2023-03-27T23:19:24.051Z,101866.38
2023-03-27T23:21:51.929Z,101876.81
2023-03-27T23:24:19.827Z,101887.41
2023-03-27T23:26:49.103Z,101897.19
2023-03-27T23:29:17.083Z,101892.81
2023-03-27T23:31:44.967Z,101892.56
2023-03-27T23:34:12.965Z,101888.47
2023-03-27T23:36:40.852Z,101897.19
2023-03-27T23:39:08.790Z,101906.22
2023-03-27T23:41:36.682Z,101906.13
2023-03-27T23:44:06.261Z,101916.81
2023-03-27T23:46:34.260Z,101914.81
2023-03-27T23:49:02.153Z,101923.22
2023-03-27T23:51:30.067Z,101924.19
2023-03-27T23:53:57.960Z,101926.13
2023-03-27T23:56:25.887Z,101930.06
2023-03-27T23:58:53.798Z,101937.53
